Etusivu
METAR-TAF:

METAR-TAF

Lentoasemat :

Fairmont Municipal Airport

Fairmont, Minnesota, Yhdysvallat

Leveyspiiri: 43-39N, Pituuspiiri: 094-25W, korkeus merenpinnasta: 354 m

Tämänhetkinen sää

Tämä raportti tehtiin 48 minuuttia sitten, kello 08.56 UTC
Tuuli 16 kn etelästä
Lämpötila -7°C
Kosteus 79%
Ilmanpaine 1012 hPa
Näkyvyys: 16.1 km
Hajonneita pilviä 11000 ft:n korkeudessa

METAR: KFRM 130856Z AUTO 18016KT 10SM BKN110 M07/M10 A2987 RMK AO2 SLP140 T10671100 56028 FZRANO

Aika: 03:44 (09:44 UTC)


TAF: puuttuu

Säähavainnot ja -ennusteet yli 4000 lentoasemalta (METAR- ja TAF-raportit).

Käytössä olevat sääasemat on merkitty karttaan keltaisilla ja punaisilla pisteillä.

Aseta hiiri pisteen päälle nähdäksesi sääaseman nimen.

Klikkaa sitten nähdäksesi säähavainnot ja -ennusteet.

Kartan vaihtaminen: klikkaa mustalla rastilla varustettuja vihreitä pisteitä, niin voit zoomata sisään; viivalla varustettua vihreää pistettä, niin voit zoomata ulos tai vihreitä nuolia, niin pääset viereisille kartoille.


METAR-TAF: